»·PEaware :: GSA572 KNYL-KSBA

GSA572 :: KNYL-KSBA

FLIGHT INFORMATION

Flight Status: Arrived
Operator:
Global Sim Alliance
More flights by this operator :: More flights under this callsign
Pilot: Anonymous 8799 (8799)
Aircraft: BOEING 737-800
(B738)
More flights by this aircraft type
Origin: KNYL Yuma MCAS/Yuma Intl
United States
Destination: KSBA Santa Barbara Mun
United States
More flights between these airports :: More routes between these airports
Route: +ARGUS4 ARGUS IPL J2 MZB J1 LAX J88 RZS
File this flight plan on PilotEdge
Remarks:
Altitude:
(Current/Filed)
32,000ft
Speed:
(Current/Filed)
450kts
Departed: 29-Jan-19 09:20 AM
Arrived: 29-Jan-19 10:13 AM
Distance/Time
Traveled:
282nm/0:53
Distance/Time
To Go:
Arrived

Flight Plot

Page will automatically refresh every two minutes.

Flight plan parsing failed; only flown route is shown


Map Options




Map Legend


Flown Route
Filed Route
Departure Airport
Arrival Airport
Navaid (VOR, NDB)
Fix

Horizontal Profiles

Position Reports

Time Latitude Longitude Heading Altitude Ground
Speed
29-Jan-19 08:53 32.667853 -114.599586 359 220ft 0kts
29-Jan-19 08:54 32.667853 -114.599586 359 220ft 0kts
29-Jan-19 08:55 32.667853 -114.599586 359 220ft 0kts
29-Jan-19 08:56 32.667853 -114.599586 359 220ft 0kts
29-Jan-19 08:57 32.667853 -114.599586 359 220ft 0kts
29-Jan-19 08:58 32.667853 -114.599586 359 220ft 0kts
29-Jan-19 08:59 32.667853 -114.599586 359 220ft 0kts
29-Jan-19 09:00 32.667853 -114.599586 359 220ft 0kts
29-Jan-19 09:01 32.667853 -114.599586 359 220ft 0kts
29-Jan-19 09:02 32.667853 -114.599586 359 220ft 0kts
29-Jan-19 09:03 32.667853 -114.599586 359 220ft 0kts
29-Jan-19 09:04 32.667853 -114.599586 359 220ft 0kts
29-Jan-19 09:05 32.667853 -114.599586 359 220ft 0kts
29-Jan-19 09:06 32.667853 -114.599586 359 220ft 0kts
29-Jan-19 09:07 32.667853 -114.599586 359 220ft 0kts
29-Jan-19 09:08 32.667853 -114.599586 359 220ft 0kts
29-Jan-19 09:09 32.667627 -114.599659 34 220ft 2kts
29-Jan-19 09:10 32.667442 -114.600238 87 220ft 1kts
29-Jan-19 09:11 32.667441 -114.600249 87 220ft 0kts
29-Jan-19 09:12 32.667441 -114.600249 87 220ft 0kts
29-Jan-19 09:13 32.667442 -114.600238 87 220ft 0kts
29-Jan-19 09:13 32.667442 -114.600238 87 220ft 0kts
29-Jan-19 09:14 32.667443 -114.600094 90 220ft 3kts
29-Jan-19 09:16 32.667363 -114.595536 89 220ft 20kts
29-Jan-19 09:16 32.667349 -114.592551 87 220ft 0kts
29-Jan-19 09:17 32.667349 -114.592551 87 220ft 0kts
29-Jan-19 09:18 32.665954 -114.592740 229 220ft 21kts
29-Jan-19 09:19 32.641574 -114.628067 255 1734ft 225kts
29-Jan-19 09:20 32.679364 -114.681805 349 5370ft 274kts
29-Jan-19 09:21 32.755012 -114.695839 350 10142ft 285kts
29-Jan-19 09:22 32.834712 -114.706877 349 14371ft 299kts
29-Jan-19 09:23 32.868692 -114.782279 262 17257ft 329kts
29-Jan-19 09:24 32.851024 -114.892407 260 20841ft 349kts
29-Jan-19 09:25 32.832044 -115.008212 260 24112ft 365kts
29-Jan-19 09:26 32.812194 -115.128758 259 27080ft 381kts
29-Jan-19 09:27 32.791346 -115.254646 259 29731ft 397kts
29-Jan-19 09:28 32.769653 -115.384770 259 31992ft 409kts
29-Jan-19 09:29 32.749515 -115.519008 268 32010ft 412kts
29-Jan-19 09:30 32.752305 -115.655564 270 32005ft 414kts
29-Jan-19 09:31 32.755757 -115.792936 270 32011ft 413kts
29-Jan-19 09:32 32.777248 -115.925703 294 32016ft 419kts
29-Jan-19 09:33 32.834448 -116.046794 297 32021ft 422kts
29-Jan-19 09:34 32.892184 -116.168223 297 32034ft 421kts
29-Jan-19 09:35 32.949801 -116.289787 297 32034ft 421kts
29-Jan-19 09:36 33.007233 -116.411349 297 32033ft 421kts
29-Jan-19 09:37 33.064401 -116.532745 297 32032ft 421kts
29-Jan-19 09:38 33.121264 -116.653934 296 32032ft 421kts
29-Jan-19 09:39 33.177611 -116.774615 296 32038ft 420kts
29-Jan-19 09:40 33.234396 -116.896637 297 32037ft 421kts
29-Jan-19 09:41 33.291168 -117.019009 297 32031ft 421kts
29-Jan-19 09:42 33.347948 -117.141792 297 32026ft 422kts
29-Jan-19 09:43 33.404497 -117.264462 297 32025ft 421kts
29-Jan-19 09:44 33.461150 -117.387762 297 32025ft 422kts
29-Jan-19 09:45 33.517701 -117.511289 297 32028ft 423kts
29-Jan-19 09:46 33.574331 -117.635399 297 32030ft 424kts
29-Jan-19 09:47 33.630629 -117.759310 297 32038ft 425kts
29-Jan-19 09:48 33.687155 -117.884154 297 32037ft 423kts
29-Jan-19 09:49 33.743309 -118.008517 297 32036ft 425kts
29-Jan-19 09:50 33.799142 -118.132498 297 30024ft 423kts
29-Jan-19 09:51 33.853932 -118.254656 297 27258ft 406kts
29-Jan-19 09:52 33.905628 -118.370295 297 23727ft 382kts
29-Jan-19 09:53 33.953662 -118.478545 297 19924ft 358kts
29-Jan-19 09:54 33.999072 -118.582236 298 17354ft 343kts
29-Jan-19 09:55 34.041579 -118.679662 297 14793ft 331kts
29-Jan-19 09:56 34.083270 -118.775619 297 13999ft 320kts
29-Jan-19 09:57 34.123327 -118.868112 297 13148ft 283kts
29-Jan-19 09:58 34.143961 -118.957571 281 11439ft 277kts
29-Jan-19 09:59 34.158177 -119.048117 281 9045ft 270kts
29-Jan-19 10:00 34.171715 -119.135004 282 7160ft 254kts
29-Jan-19 10:01 34.184158 -119.215875 282 6038ft 239kts
29-Jan-19 10:02 34.196318 -119.295741 282 6009ft 241kts
29-Jan-19 10:03 34.209039 -119.375388 292 6004ft 240kts
29-Jan-19 10:04 34.242112 -119.444176 302 4850ft 231kts
29-Jan-19 10:05 34.274600 -119.509594 302 3545ft 224kts
29-Jan-19 10:06 34.304888 -119.571120 302 3008ft 198kts
29-Jan-19 10:07 34.338202 -119.620380 315 2649ft 180kts
29-Jan-19 10:08 34.372224 -119.661933 314 1743ft 175kts
29-Jan-19 10:09 34.406959 -119.703579 313 1400ft 170kts
29-Jan-19 10:10 34.428852 -119.751216 280 1092ft 148kts
29-Jan-19 10:11 34.428249 -119.801902 269 589ft 159kts
29-Jan-19 10:12 34.427566 -119.850144 266 21ft 37kts
29-Jan-19 10:13 34.426730 -119.851682 158 21ft 0kts
29-Jan-19 10:14 34.426519 -119.847934 88 21ft 22kts
29-Jan-19 10:15 34.426647 -119.842542 89 21ft 13kts
29-Jan-19 10:16 34.425670 -119.837947 163 21ft 14kts

Navigation Log

Ident Type
Flight plan parsing failed, navigation log unavailable